Time;durP1;ratioP1;P1;durP2;ratioP2;P2;SDS_P1;SDS_P2;PMS_P1;PMS_P2;Temp;Humidity;BMP_temperature;BMP_pressure;BME280_temperature;BME280_humidity;BME280_pressure;Samples;Min_cycle;Max_cycle;Signal;HPM_P1;HPM_P2
2023/09/09 00:01:43;;;;;;;1.25;0.50;;;16.30;36.60;;;;;;5075111;28;20070;-76
2023/09/09 00:04:11;;;;;;;0.60;0.40;;;16.40;35.40;;;;;;5076356;28;20081;-76
2023/09/09 00:06:38;;;;;;;3.90;0.63;;;16.40;35.70;;;;;;5076316;28;20436;-76
2023/09/09 00:09:06;;;;;;;1.27;0.60;;;16.60;36.00;;;;;;5076172;28;20020;-78
2023/09/09 00:11:33;;;;;;;1.75;0.50;;;16.70;34.60;;;;;;5076361;28;20025;-76
2023/09/09 00:14:01;;;;;;;3.08;0.60;;;16.80;35.40;;;;;;5076309;28;20507;-77
2023/09/09 00:16:38;;;;;;;0.65;0.38;;;16.70;33.70;;;;;;5069670;28;20089;-76
2023/09/09 00:19:06;;;;;;;2.05;0.90;;;16.90;35.00;;;;;;5069619;28;20029;-76
2023/09/09 00:21:34;;;;;;;1.77;0.40;;;16.80;33.50;;;;;;5069629;28;20032;-76
2023/09/09 00:24:01;;;;;;;4.05;0.57;;;16.90;34.60;;;;;;5070389;28;20024;-76
2023/09/09 00:26:31;;;;;;;0.98;0.45;;;17.10;34.30;;;;;;5069948;28;20032;-78
2023/09/09 00:28:59;;;;;;;2.20;0.50;;;17.00;33.10;;;;;;5068568;28;20045;-76
2023/09/09 00:31:26;;;;;;;1.40;0.60;;;17.10;32.60;;;;;;5071045;28;20386;-77
2023/09/09 00:34:11;;;;;;;2.28;0.68;;;17.10;32.50;;;;;;5069657;28;20024;-75
2023/09/09 00:36:38;;;;;;;1.60;0.50;;;17.30;33.00;;;;;;5069401;28;20033;-75
2023/09/09 00:39:06;;;;;;;2.33;0.50;;;17.20;32.10;;;;;;5069837;28;20013;-76
2023/09/09 00:41:33;;;;;;;3.75;0.77;;;17.30;31.70;;;;;;5070565;28;20098;-78
2023/09/09 00:44:02;;;;;;;2.53;0.55;;;17.20;31.40;;;;;;5068848;28;20114;-75
2023/09/09 00:46:29;;;;;;;1.55;0.60;;;17.30;32.20;;;;;;5069913;28;20486;-76
2023/09/09 00:49:00;;;;;;;1.42;0.73;;;17.20;32.50;;;;;;5069258;28;20019;-78
2023/09/09 00:51:27;;;;;;;1.90;0.70;;;17.40;31.90;;;;;;5068999;28;20020;-76
2023/09/09 00:53:54;;;;;;;1.35;0.75;;;17.70;31.70;;;;;;5067668;28;20459;-79
2023/09/09 00:56:22;;;;;;;3.00;0.70;;;17.80;31.30;;;;;;5068911;28;20024;-77
2023/09/09 00:58:49;;;;;;;1.33;0.32;;;18.00;30.10;;;;;;5070093;28;20031;-77
2023/09/09 01:01:17;;;;;;;3.13;0.60;;;17.80;30.00;;;;;;5068925;28;20024;-75
2023/09/09 01:03:44;;;;;;;2.30;0.63;;;17.70;30.70;;;;;;5066618;28;20137;-75
2023/09/09 01:06:11;;;;;;;2.08;0.70;;;17.80;30.40;;;;;;5069711;28;20078;-74
2023/09/09 01:08:39;;;;;;;2.10;0.75;;;17.80;30.70;;;;;;5069529;28;20044;-76
2023/09/09 01:11:06;;;;;;;2.33;0.70;;;17.70;30.90;;;;;;5068140;28;20021;-78
2023/09/09 01:13:34;;;;;;;2.42;0.60;;;17.80;31.10;;;;;;5066002;28;20028;-77
2023/09/09 01:16:01;;;;;;;0.95;0.45;;;17.80;31.10;;;;;;5071033;28;20043;-75
2023/09/09 01:18:31;;;;;;;2.42;0.73;;;17.80;31.20;;;;;;5069539;28;20506;-76
2023/09/09 01:21:09;;;;;;;2.90;0.73;;;17.90;30.40;;;;;;5069196;28;20027;-77
2023/09/09 01:23:38;;;;;;;1.80;0.80;;;17.90;29.80;;;;;;5066963;28;20024;-80
2023/09/09 01:26:05;;;;;;;2.28;0.75;;;18.10;30.90;;;;;;5069285;28;20035;-83
2023/09/09 01:28:34;;;;;;;0.95;0.68;;;18.50;30.80;;;;;;5069046;28;20055;-76
2023/09/09 01:31:01;;;;;;;2.88;0.60;;;18.30;29.30;;;;;;5067546;28;20032;-76
2023/09/09 01:33:28;;;;;;;2.53;0.70;;;18.20;29.90;;;;;;5066895;28;20479;-75
2023/09/09 01:35:55;;;;;;;1.13;0.52;;;18.20;29.70;;;;;;5069695;28;20403;-79
2023/09/09 01:38:26;;;;;;;1.55;0.70;;;18.10;29.50;;;;;;5069831;28;20036;-80
2023/09/09 01:40:54;;;;;;;2.42;0.93;;;18.00;29.00;;;;;;5070049;28;20109;-76
2023/09/09 01:43:21;;;;;;;1.88;0.63;;;17.90;30.10;;;;;;5066699;28;20031;-76
2023/09/09 01:45:49;;;;;;;3.65;0.60;;;18.10;30.70;;;;;;5070108;28;20379;-79
2023/09/09 01:48:17;;;;;;;0.80;0.65;;;18.10;30.20;;;;;;5068753;28;20376;-77
2023/09/09 01:50:47;;;;;;;1.30;0.70;;;18.10;30.30;;;;;;5068883;28;20518;-77
2023/09/09 01:53:15;;;;;;;2.60;0.70;;;18.30;30.00;;;;;;5064996;28;20024;-75
2023/09/09 01:55:43;;;;;;;3.47;0.70;;;18.20;28.80;;;;;;5068876;28;20025;-77
2023/09/09 01:58:10;;;;;;;2.75;0.88;;;18.10;28.50;;;;;;5069048;28;20441;-76
2023/09/09 02:00:37;;;;;;;2.10;0.70;;;18.10;28.70;;;;;;5068917;28;20109;-76
2023/09/09 02:03:05;;;;;;;2.03;0.50;;;18.00;28.80;;;;;;5065537;28;20115;-76
2023/09/09 02:05:32;;;;;;;0.93;0.57;;;18.00;29.20;;;;;;5068387;28;20027;-76
2023/09/09 02:07:59;;;;;;;2.00;0.60;;;18.00;29.30;;;;;;5067030;28;20033;-77
2023/09/09 02:10:27;;;;;;;2.50;0.70;;;18.00;29.40;;;;;;5069852;28;20078;-85
2023/09/09 02:12:54;;;;;;;2.30;0.80;;;18.10;29.10;;;;;;5065885;28;20441;-81
2023/09/09 02:15:22;;;;;;;2.00;0.70;;;18.20;30.60;;;;;;5067186;28;20040;-79
2023/09/09 02:17:49;;;;;;;2.33;0.63;;;18.20;28.20;;;;;;5069077;28;20036;-82
2023/09/09 02:20:16;;;;;;;2.05;0.90;;;18.20;28.00;;;;;;5067934;28;20123;-78
2023/09/09 02:22:44;;;;;;;3.05;0.70;;;18.20;28.60;;;;;;5065016;28;20024;-81
2023/09/09 02:25:11;;;;;;;1.55;0.60;;;18.20;28.90;;;;;;5068461;28;20040;-82
2023/09/09 02:27:40;;;;;;;1.20;0.70;;;18.20;27.70;;;;;;5067533;28;20032;-77
2023/09/09 02:30:09;;;;;;;1.92;0.75;;;18.30;28.30;;;;;;5068581;28;20032;-81
2023/09/09 02:32:36;;;;;;;2.63;0.73;;;18.30;27.80;;;;;;5064788;28;20028;-79
2023/09/09 02:35:04;;;;;;;1.77;0.77;;;18.40;28.00;;;;;;5067486;28;20518;-77
2023/09/09 02:37:31;;;;;;;1.25;0.75;;;18.40;28.50;;;;;;5066949;28;20032;-78
2023/09/09 02:39:59;;;;;;;2.72;0.80;;;18.60;28.30;;;;;;5068409;28;20020;-77
2023/09/09 02:42:26;;;;;;;4.53;0.77;;;18.50;27.40;;;;;;5064497;28;20020;-78
2023/09/09 02:44:53;;;;;;;2.30;0.90;;;18.40;27.40;;;;;;5067471;28;20365;-77
2023/09/09 02:47:21;;;;;;;1.80;0.57;;;18.50;28.40;;;;;;5066433;28;20403;-78
2023/09/09 02:49:51;;;;;;;3.30;0.90;;;18.50;28.30;;;;;;5067586;28;20020;-79
2023/09/09 02:52:18;;;;;;;2.53;0.60;;;18.50;27.00;;;;;;5064126;28;20089;-76
2023/09/09 02:54:46;;;;;;;1.60;0.70;;;18.50;27.00;;;;;;5066762;28;20020;-79
2023/09/09 02:57:13;;;;;;;2.13;0.70;;;18.50;28.10;;;;;;5067109;28;20116;-76
2023/09/09 02:59:41;;;;;;;1.95;0.60;;;18.60;28.00;;;;;;5065671;28;20154;-78
2023/09/09 03:02:08;;;;;;;1.67;0.73;;;18.60;27.60;;;;;;5064827;28;20392;-77
2023/09/09 03:04:36;;;;;;;2.65;0.70;;;18.60;28.30;;;;;;5067310;28;20020;-79
2023/09/09 03:07:04;;;;;;;1.63;0.80;;;18.70;29.70;;;;;;5068410;28;20487;-86
2023/09/09 03:09:33;;;;;;;4.15;0.90;;;18.70;30.90;;;;;;5068821;28;20028;-87
2023/09/09 03:12:01;;;;;;;2.60;0.80;;;18.80;30.70;;;;;;5064841;28;20028;-76
2023/09/09 03:14:29;;;;;;;1.75;0.77;;;18.90;31.40;;;;;;5067234;28;20082;-88
2023/09/09 03:16:57;;;;;;;1.33;0.80;;;19.00;31.80;;;;;;5068247;28;20119;-87
2023/09/09 03:19:24;;;;;;;3.15;0.88;;;19.10;31.20;;;;;;5069148;28;20113;-77
2023/09/09 03:21:51;;;;;;;2.80;0.55;;;19.20;30.90;;;;;;5067320;28;20040;-76
2023/09/09 03:24:19;;;;;;;5.55;0.90;;;19.20;29.60;;;;;;5069320;28;20035;-82
2023/09/09 03:26:46;;;;;;;1.15;0.77;;;19.20;30.80;;;;;;5070457;28;20020;-78
2023/09/09 03:29:13;;;;;;;2.50;1.00;;;19.20;31.30;;;;;;5066939;28;20121;-76
2023/09/09 03:31:42;;;;;;;1.58;0.60;;;19.30;32.10;;;;;;5064993;28;20091;-78
2023/09/09 03:34:10;;;;;;;2.65;0.80;;;19.20;31.80;;;;;;5066853;28;20028;-76
2023/09/09 03:36:38;;;;;;;2.13;0.88;;;19.20;32.30;;;;;;5066818;28;20036;-76
2023/09/09 03:39:06;;;;;;;2.85;0.80;;;19.20;33.10;;;;;;5063981;28;20392;-77
2023/09/09 03:41:33;;;;;;;3.10;0.80;;;19.20;33.20;;;;;;5063989;28;20043;-77
2023/09/09 03:44:00;;;;;;;2.60;0.95;;;19.30;33.40;;;;;;5065112;28;20028;-77
2023/09/09 03:46:28;;;;;;;3.08;1.00;;;19.30;33.40;;;;;;5066977;28;20035;-77
2023/09/09 03:48:55;;;;;;;2.30;0.70;;;19.30;33.40;;;;;;5066533;28;20104;-77
2023/09/09 03:51:24;;;;;;;2.15;0.80;;;19.30;32.50;;;;;;5066335;28;20021;-77
2023/09/09 03:53:51;;;;;;;3.78;0.90;;;19.30;32.60;;;;;;5063934;28;20027;-77
2023/09/09 03:56:19;;;;;;;3.15;0.90;;;19.30;32.60;;;;;;5068066;28;20110;-77
2023/09/09 03:58:46;;;;;;;2.60;1.10;;;19.20;32.00;;;;;;5067558;28;20028;-77
2023/09/09 04:01:14;;;;;;;1.63;0.95;;;19.20;32.80;;;;;;5067574;28;20027;-76
2023/09/09 04:03:42;;;;;;;4.32;1.00;;;19.20;32.80;;;;;;5062012;28;20090;-76
2023/09/09 04:06:11;;;;;;;2.88;1.00;;;19.20;33.30;;;;;;5067086;28;20029;-77
2023/09/09 04:08:40;;;;;;;2.53;0.88;;;19.30;33.50;;;;;;5067233;28;20028;-78
2023/09/09 04:11:08;;;;;;;3.72;0.80;;;19.30;32.90;;;;;;5066758;28;20374;-78
2023/09/09 04:13:37;;;;;;;2.00;0.70;;;19.30;33.90;;;;;;5064499;28;20069;-77
2023/09/09 04:16:05;;;;;;;2.28;0.75;;;19.30;33.60;;;;;;5066502;28;20035;-77
2023/09/09 04:18:32;;;;;;;2.78;0.73;;;19.30;33.40;;;;;;5067539;28;20613;-77
2023/09/09 04:21:01;;;;;;;2.88;1.00;;;19.30;33.70;;;;;;5066427;28;20379;-77
2023/09/09 04:23:29;;;;;;;1.67;0.80;;;19.30;33.90;;;;;;5063067;28;20028;-76
2023/09/09 04:25:56;;;;;;;1.17;0.60;;;19.30;33.90;;;;;;5066556;28;20476;-77
2023/09/09 04:28:26;;;;;;;2.17;0.70;;;19.30;34.50;;;;;;5067339;28;20415;-77
2023/09/09 04:30:53;;;;;;;2.53;0.70;;;19.30;35.20;;;;;;5066522;28;20017;-77
2023/09/09 04:33:21;;;;;;;3.50;0.80;;;19.40;35.40;;;;;;5062448;28;20471;-77
2023/09/09 04:35:48;;;;;;;2.78;0.90;;;19.50;34.60;;;;;;5065902;28;20473;-78
2023/09/09 04:38:16;;;;;;;2.60;0.80;;;19.50;34.80;;;;;;5066762;28;20037;-79
2023/09/09 04:40:45;;;;;;;2.63;0.93;;;19.50;35.50;;;;;;5065806;28;20028;-76
2023/09/09 04:43:12;;;;;;;3.35;0.90;;;19.50;34.90;;;;;;5062977;28;20036;-77
2023/09/09 04:45:40;;;;;;;5.70;1.10;;;19.50;35.20;;;;;;5067381;28;20020;-79
2023/09/09 04:48:07;;;;;;;2.22;0.80;;;19.40;35.10;;;;;;5068161;28;20025;-75
2023/09/09 04:50:35;;;;;;;1.75;0.90;;;19.50;35.10;;;;;;5071117;28;20468;-76
2023/09/09 04:53:02;;;;;;;2.47;1.10;;;19.50;35.50;;;;;;5067806;28;20032;-76
2023/09/09 04:55:29;;;;;;;3.05;0.73;;;19.50;34.80;;;;;;5071539;28;20383;-77
2023/09/09 04:57:57;;;;;;;2.33;0.93;;;19.40;33.80;;;;;;5070258;28;20059;-77
2023/09/09 05:00:24;;;;;;;3.22;0.77;;;19.30;34.40;;;;;;5069684;28;20021;-77
2023/09/09 05:02:52;;;;;;;2.88;0.90;;;19.30;34.90;;;;;;5068125;28;20038;-77
2023/09/09 05:05:19;;;;;;;3.45;0.90;;;19.20;35.60;;;;;;5070132;28;20012;-75
2023/09/09 05:07:48;;;;;;;1.75;0.75;;;19.30;35.80;;;;;;5072058;28;20028;-77
2023/09/09 05:10:16;;;;;;;2.35;0.80;;;19.30;35.50;;;;;;5069817;28;20048;-77
2023/09/09 05:12:43;;;;;;;1.80;0.77;;;19.30;34.80;;;;;;5066247;28;20032;-78
2023/09/09 05:15:13;;;;;;;3.20;0.93;;;19.20;35.20;;;;;;5069229;28;20032;-77
2023/09/09 05:17:40;;;;;;;3.63;0.90;;;19.20;34.90;;;;;;5069705;28;20063;-76
2023/09/09 05:20:08;;;;;;;3.58;0.93;;;19.20;35.60;;;;;;5070163;28;20037;-77
2023/09/09 05:22:36;;;;;;;1.65;0.70;;;19.20;34.40;;;;;;5065479;28;20090;-77
2023/09/09 05:25:04;;;;;;;2.15;0.93;;;19.20;35.60;;;;;;5069649;28;20365;-79
2023/09/09 05:27:31;;;;;;;2.88;1.02;;;19.20;35.30;;;;;;5071580;28;20569;-79
2023/09/09 05:29:59;;;;;;;2.72;0.68;;;19.20;36.20;;;;;;5073218;28;20021;-77
2023/09/09 05:32:27;;;;;;;1.05;0.65;;;19.20;36.90;;;;;;5073009;28;20533;-78
2023/09/09 05:34:54;;;;;;;2.20;0.88;;;19.20;36.60;;;;;;5073108;28;20051;-77
2023/09/09 05:37:22;;;;;;;5.20;1.02;;;19.20;36.50;;;;;;5073142;28;20028;-77
2023/09/09 05:39:49;;;;;;;2.47;0.80;;;19.10;36.20;;;;;;5068872;28;20104;-76
2023/09/09 05:42:16;;;;;;;4.15;0.98;;;19.00;36.80;;;;;;5054155;28;20387;-80
2023/09/09 05:44:44;;;;;;;1.50;0.52;;;19.00;37.00;;;;;;5061694;28;20024;-78
2023/09/09 05:47:11;;;;;;;1.67;1.00;;;19.00;37.30;;;;;;5072323;28;20044;-78
2023/09/09 05:49:38;;;;;;;4.13;0.82;;;18.90;37.80;;;;;;5075764;28;20432;-77
2023/09/09 05:52:06;;;;;;;3.63;0.80;;;18.90;37.30;;;;;;5063773;28;20115;-78
2023/09/09 05:54:34;;;;;;;3.10;0.60;;;18.80;37.40;;;;;;5079432;28;20044;-78
2023/09/09 05:57:02;;;;;;;1.85;0.60;;;18.80;38.00;;;;;;5069460;28;20056;-81
2023/09/09 05:59:29;;;;;;;2.10;0.80;;;18.70;36.50;;;;;;5072485;28;20020;-75
2023/09/09 06:01:56;;;;;;;5.93;0.90;;;18.60;37.60;;;;;;5073542;28;20032;-78
2023/09/09 06:04:24;;;;;;;2.58;0.68;;;18.50;38.50;;;;;;5071725;28;20100;-76
2023/09/09 06:06:51;;;;;;;1.10;0.80;;;18.50;38.20;;;;;;5072354;28;20035;-77
2023/09/09 06:09:19;;;;;;;1.40;0.60;;;18.40;38.50;;;;;;5070651;28;20024;-77
2023/09/09 06:11:46;;;;;;;2.88;0.73;;;18.30;38.90;;;;;;5069289;28;20028;-78
2023/09/09 06:14:13;;;;;;;2.83;0.68;;;18.30;38.50;;;;;;5063257;28;20075;-76
2023/09/09 06:16:41;;;;;;;3.92;0.85;;;18.20;39.10;;;;;;5062993;28;20032;-76
2023/09/09 06:19:08;;;;;;;1.65;0.77;;;18.20;39.10;;;;;;5073314;28;20039;-77
2023/09/09 06:21:36;;;;;;;5.35;2.40;;;18.10;40.20;;;;;;5074021;28;20391;-77
2023/09/09 06:24:03;;;;;;;4.13;1.50;;;18.10;40.30;;;;;;5072403;28;20135;-77
2023/09/09 06:26:33;;;;;;;1.77;0.73;;;18.00;39.90;;;;;;5073278;28;20031;-77
2023/09/09 06:29:01;;;;;;;2.75;1.00;;;18.00;39.90;;;;;;5073696;28;20036;-75
2023/09/09 06:31:29;;;;;;;1.55;0.90;;;17.90;40.40;;;;;;5073957;28;20036;-77
2023/09/09 06:33:58;;;;;;;2.17;0.90;;;17.90;40.30;;;;;;5072707;28;20048;-75
2023/09/09 06:36:28;;;;;;;2.78;0.70;;;17.80;40.20;;;;;;5073497;28;20076;-75
2023/09/09 06:38:55;;;;;;;1.35;0.68;;;17.80;39.50;;;;;;5073792;28;20067;-75
2023/09/09 06:41:27;;;;;;;3.03;0.65;;;17.70;38.70;;;;;;5074046;28;20476;-76
2023/09/09 06:43:55;;;;;;;2.75;0.80;;;17.60;38.50;;;;;;5071789;28;20430;-76
2023/09/09 06:46:22;;;;;;;2.53;0.82;;;17.50;37.50;;;;;;5072277;28;20024;-76
2023/09/09 06:48:49;;;;;;;2.55;1.00;;;17.40;38.20;;;;;;5073356;28;20021;-77
2023/09/09 06:51:17;;;;;;;1.65;0.60;;;17.40;38.60;;;;;;5072967;28;20028;-77
2023/09/09 06:53:44;;;;;;;2.60;0.75;;;17.40;39.40;;;;;;5061606;28;20038;-76
2023/09/09 06:56:12;;;;;;;1.35;0.68;;;17.30;39.80;;;;;;5053339;28;20029;-76
2023/09/09 06:58:39;;;;;;;2.03;0.85;;;17.30;40.60;;;;;;5053310;28;20029;-77
2023/09/09 07:01:07;;;;;;;2.30;0.73;;;17.30;40.70;;;;;;5053094;28;20091;-78
2023/09/09 07:03:34;;;;;;;3.20;1.10;;;17.20;42.00;;;;;;5053890;28;20025;-77
2023/09/09 07:06:03;;;;;;;3.55;1.33;;;17.20;40.70;;;;;;5072263;28;20029;-80
2023/09/09 07:08:30;;;;;;;4.00;1.27;;;17.10;40.40;;;;;;5072004;28;20090;-76
2023/09/09 07:10:58;;;;;;;1.67;0.68;;;17.10;39.80;;;;;;5072135;28;20074;-76
2023/09/09 07:13:26;;;;;;;2.13;1.02;;;17.00;40.60;;;;;;5072852;28;20394;-77
2023/09/09 07:15:54;;;;;;;1.63;0.77;;;16.90;42.50;;;;;;5071782;28;20025;-77
2023/09/09 07:18:22;;;;;;;2.88;0.75;;;16.90;42.40;;;;;;5072806;28;20548;-79
2023/09/09 07:20:49;;;;;;;2.88;1.10;;;16.90;42.30;;;;;;5070126;28;20031;-76
2023/09/09 07:23:18;;;;;;;2.85;1.00;;;16.80;42.10;;;;;;5072629;28;20055;-77
2023/09/09 07:25:47;;;;;;;3.13;1.20;;;16.80;42.60;;;;;;5072845;28;20387;-77
2023/09/09 07:28:14;;;;;;;4.72;1.25;;;16.80;42.50;;;;;;5072958;28;20048;-76
2023/09/09 07:30:41;;;;;;;2.25;1.00;;;16.80;42.20;;;;;;5072797;28;20028;-76
2023/09/09 07:33:09;;;;;;;3.00;1.10;;;16.70;43.70;;;;;;5074175;28;20058;-76
2023/09/09 07:35:36;;;;;;;2.38;1.02;;;16.70;43.30;;;;;;5073444;28;20025;-77
2023/09/09 07:38:07;;;;;;;1.98;0.80;;;16.70;43.70;;;;;;5074108;28;20036;-76
2023/09/09 07:40:39;;;;;;;2.63;0.80;;;16.70;43.80;;;;;;5071870;28;20053;-77
2023/09/09 07:43:06;;;;;;;3.45;0.80;;;16.60;44.00;;;;;;5072569;28;20020;-77
2023/09/09 07:45:35;;;;;;;2.67;0.80;;;16.60;44.70;;;;;;5071500;28;20025;-78
2023/09/09 07:48:04;;;;;;;2.72;0.90;;;16.50;44.20;;;;;;5056441;28;20036;-77
2023/09/09 07:50:31;;;;;;;3.88;1.25;;;16.50;44.50;;;;;;5052694;28;20132;-78
2023/09/09 07:52:58;;;;;;;2.92;1.10;;;16.50;45.00;;;;;;5052420;28;20028;-76
2023/09/09 07:55:27;;;;;;;4.28;1.75;;;16.40;47.00;;;;;;5053166;28;20036;-76
2023/09/09 07:57:54;;;;;;;4.78;2.03;;;16.30;45.60;;;;;;5072345;28;20506;-77
2023/09/09 08:00:22;;;;;;;3.35;1.75;;;16.30;45.80;;;;;;5072466;28;20043;-76
2023/09/09 08:02:49;;;;;;;3.70;2.10;;;16.20;45.20;;;;;;5072286;28;20028;-78
2023/09/09 08:05:20;;;;;;;8.25;2.58;;;16.20;46.70;;;;;;5072479;28;20463;-80
2023/09/09 08:07:47;;;;;;;5.07;1.92;;;16.20;48.10;;;;;;5071579;28;20043;-76
2023/09/09 08:10:16;;;;;;;3.58;1.45;;;16.20;48.50;;;;;;5072414;28;20016;-76
2023/09/09 08:12:43;;;;;;;3.28;1.73;;;16.10;47.30;;;;;;5072617;28;20554;-77
2023/09/09 08:15:11;;;;;;;3.17;1.45;;;16.00;47.80;;;;;;5072421;28;20375;-77
2023/09/09 08:17:38;;;;;;;3.25;1.73;;;16.00;47.80;;;;;;5071115;28;20036;-77
2023/09/09 08:20:07;;;;;;;5.82;2.28;;;16.00;46.10;;;;;;5072687;28;20021;-77
2023/09/09 08:22:37;;;;;;;6.22;2.30;;;15.90;44.70;;;;;;5074791;28;20081;-76
2023/09/09 08:25:06;;;;;;;5.47;1.90;;;15.80;44.90;;;;;;5076075;28;20052;-76
2023/09/09 08:27:33;;;;;;;5.28;2.03;;;15.70;44.40;;;;;;5074215;28;20079;-79
2023/09/09 08:30:02;;;;;;;4.20;1.90;;;15.70;44.90;;;;;;5076173;28;20048;-76
2023/09/09 08:32:30;;;;;;;5.85;1.50;;;15.50;44.90;;;;;;5076165;28;20032;-76
2023/09/09 08:34:59;;;;;;;5.22;2.10;;;15.40;47.40;;;;;;5076541;28;20017;-76
2023/09/09 08:37:26;;;;;;;4.07;1.80;;;15.30;45.80;;;;;;5074869;28;20028;-75
2023/09/09 08:39:55;;;;;;;3.80;2.13;;;15.30;46.60;;;;;;5078462;28;20027;-77
2023/09/09 08:42:49;;;;;;;5.63;1.92;;;15.20;46.30;;;;;;5075929;28;20032;-77
2023/09/09 08:45:47;;;;;;;3.55;1.65;;;15.10;46.20;;;;;;5075532;28;20059;-76
2023/09/09 08:48:20;;;;;;;3.55;1.85;;;15.00;48.70;;;;;;5086833;28;20439;-76
2023/09/09 08:50:48;;;;;;;3.40;1.92;;;15.00;49.60;;;;;;5055816;28;20099;-77
2023/09/09 08:53:17;;;;;;;5.40;1.92;;;14.90;48.60;;;;;;5070890;28;20021;-79
2023/09/09 08:55:45;;;;;;;6.93;2.25;;;14.90;47.50;;;;;;5056023;28;20021;-77
2023/09/09 08:58:13;;;;;;;5.22;2.60;;;14.90;46.90;;;;;;5074463;28;20060;-78
2023/09/09 09:00:40;;;;;;;5.22;1.70;;;14.80;47.80;;;;;;5075040;28;20491;-77
2023/09/09 09:03:08;;;;;;;6.95;1.83;;;14.70;47.70;;;;;;5075027;28;20494;-76
2023/09/09 09:05:36;;;;;;;6.30;2.10;;;14.60;48.60;;;;;;5066902;28;20033;-78
2023/09/09 09:08:07;;;;;;;4.95;2.17;;;14.60;47.70;;;;;;5067632;28;20028;-77
2023/09/09 09:10:34;;;;;;;6.28;2.83;;;14.60;49.20;;;;;;5075245;28;20020;-76
2023/09/09 09:13:01;;;;;;;6.90;3.05;;;14.60;49.00;;;;;;5071432;28;20116;-79
2023/09/09 09:15:38;;;;;;;5.63;2.47;;;14.50;48.10;;;;;;5092027;28;20067;-77
2023/09/09 09:18:05;;;;;;;5.20;2.65;;;14.50;47.70;;;;;;5073468;28;20040;-79
2023/09/09 09:20:33;;;;;;;4.88;2.38;;;14.40;48.30;;;;;;5075155;28;20020;-76
2023/09/09 09:23:02;;;;;;;7.07;2.70;;;14.30;48.30;;;;;;5062273;28;20544;-77
2023/09/09 09:25:37;;;;;;;8.10;3.00;;;14.30;48.10;;;;;;5095307;28;20107;-81
2023/09/09 09:28:04;;;;;;;8.25;3.40;;;14.20;47.70;;;;;;5072268;28;20091;-82
2023/09/09 09:30:33;;;;;;;6.95;2.65;;;14.20;48.70;;;;;;5071594;28;20024;-81
2023/09/09 09:33:01;;;;;;;10.15;5.10;;;14.30;49.60;;;;;;5069144;28;20024;-76
2023/09/09 09:35:29;;;;;;;6.18;4.35;;;14.30;48.80;;;;;;5091526;28;20169;-76
2023/09/09 09:37:57;;;;;;;6.90;4.03;;;14.30;49.50;;;;;;5072349;28;20487;-78
2023/09/09 09:40:26;;;;;;;7.00;3.72;;;14.40;47.30;;;;;;5057331;28;20375;-77
2023/09/09 09:42:53;;;;;;;4.45;2.85;;;14.40;48.00;;;;;;5053410;28;20107;-76
2023/09/09 09:45:30;;;;;;;6.65;2.67;;;14.40;46.80;;;;;;5054359;28;20427;-78
2023/09/09 09:47:59;;;;;;;5.63;2.83;;;14.30;45.10;;;;;;5074074;28;20029;-77
2023/09/09 09:50:31;;;;;;;5.65;2.72;;;14.40;46.30;;;;;;5074551;28;20479;-78
2023/09/09 09:53:05;;;;;;;5.78;2.80;;;14.40;46.00;;;;;;5074273;28;20029;-78
2023/09/09 09:55:35;;;;;;;4.88;2.42;;;14.40;47.00;;;;;;5074629;28;20107;-77
2023/09/09 09:58:06;;;;;;;5.47;2.13;;;14.40;44.70;;;;;;5072909;28;20055;-78
2023/09/09 10:00:34;;;;;;;4.20;1.83;;;14.40;45.10;;;;;;5073130;28;20017;-78
2023/09/09 10:03:05;;;;;;;4.40;1.63;;;14.30;44.30;;;;;;5074140;28;20144;-79
2023/09/09 10:05:34;;;;;;;4.10;1.75;;;14.30;43.80;;;;;;5074264;28;20543;-78
2023/09/09 10:08:41;;;;;;;4.35;2.17;;;14.30;43.70;;;;;;5073691;28;20050;-79
2023/09/09 10:11:15;;;;;;;9.90;2.90;;;14.30;43.70;;;;;;5031906;28;20036;-78
2023/09/09 10:13:51;;;;;;;6.30;2.47;;;14.20;44.20;;;;;;5069100;28;20031;-78
2023/09/09 10:16:18;;;;;;;9.65;2.55;;;14.20;44.50;;;;;;5071435;28;20024;-78
2023/09/09 10:18:47;;;;;;;4.82;2.00;;;14.20;45.10;;;;;;5073911;28;20033;-77
2023/09/09 10:21:15;;;;;;;5.35;1.90;;;14.20;44.50;;;;;;5073573;28;20029;-78
2023/09/09 10:23:44;;;;;;;3.30;1.90;;;14.20;43.90;;;;;;5073808;28;20024;-77
2023/09/09 10:26:12;;;;;;;2.55;1.50;;;14.20;44.10;;;;;;5073922;28;20063;-77
2023/09/09 10:28:41;;;;;;;4.63;2.10;;;14.20;44.50;;;;;;5076678;28;20421;-79
2023/09/09 10:31:12;;;;;;;5.82;1.85;;;14.20;44.20;;;;;;5064690;28;20399;-77
2023/09/09 10:33:48;;;;;;;5.68;1.88;;;14.20;46.00;;;;;;5073642;28;20027;-77
2023/09/09 10:36:17;;;;;;;5.28;1.80;;;14.20;47.00;;;;;;5071979;28;20115;-77
2023/09/09 10:38:45;;;;;;;5.20;1.65;;;14.20;48.80;;;;;;5073735;28;20482;-77
2023/09/09 10:41:12;;;;;;;5.05;1.85;;;14.20;47.60;;;;;;5073211;28;20391;-77
2023/09/09 10:43:40;;;;;;;4.20;1.88;;;14.20;45.10;;;;;;5073470;28;20029;-77
2023/09/09 10:46:09;;;;;;;6.15;2.33;;;14.10;44.60;;;;;;5071182;28;20032;-77
2023/09/09 10:48:36;;;;;;;4.68;2.10;;;13.90;44.20;;;;;;5073108;28;20048;-78
2023/09/09 10:51:07;;;;;;;6.13;2.95;;;14.00;45.90;;;;;;5073060;28;20025;-80
2023/09/09 10:53:54;;;;;;;5.25;1.77;;;13.90;45.30;;;;;;5073141;28;20050;-77
2023/09/09 10:56:23;;;;;;;4.60;2.22;;;13.80;44.80;;;;;;5073256;28;20472;-77
2023/09/09 10:58:51;;;;;;;7.60;3.50;;;13.80;46.10;;;;;;5071477;28;20041;-77
2023/09/09 11:01:28;;;;;;;8.52;3.60;;;13.80;45.60;;;;;;5072163;28;20491;-76
2023/09/09 11:03:55;;;;;;;6.35;2.40;;;13.80;46.40;;;;;;5073354;28;20028;-77
2023/09/09 11:06:33;;;;;;;7.68;3.17;;;13.70;45.90;;;;;;5073108;28;20054;-77
2023/09/09 11:09:02;;;;;;;5.75;2.63;;;13.70;45.10;;;;;;5072852;28;20024;-77
2023/09/09 11:11:42;;;;;;;5.28;2.90;;;13.70;47.20;;;;;;5071366;28;20103;-77
2023/09/09 11:14:10;;;;;;;4.38;1.80;;;13.60;46.50;;;;;;5073065;28;20074;-78
2023/09/09 11:16:40;;;;;;;6.63;2.10;;;13.70;47.10;;;;;;5072809;28;20022;-78
2023/09/09 11:19:16;;;;;;;6.45;2.05;;;13.70;48.40;;;;;;5072781;28;20169;-78
2023/09/09 11:21:52;;;;;;;5.53;1.80;;;13.70;47.90;;;;;;5063994;28;20104;-78
2023/09/09 11:24:20;;;;;;;5.00;1.70;;;13.70;47.90;;;;;;5065095;28;20094;-77
2023/09/09 11:26:49;;;;;;;6.65;2.13;;;13.70;48.70;;;;;;5075731;28;20025;-78
2023/09/09 11:29:20;;;;;;;6.18;2.30;;;13.70;50.30;;;;;;5076422;28;20059;-77
2023/09/09 11:31:48;;;;;;;7.82;3.33;;;13.70;49.60;;;;;;5072449;28;20094;-77
2023/09/09 11:34:15;;;;;;;49.92;33.38;;;13.70;48.70;;;;;;5071590;28;20388;-77
2023/09/09 11:36:46;;;;;;;12.07;5.00;;;13.80;48.50;;;;;;5072725;28;20028;-77
2023/09/09 11:39:13;;;;;;;17.27;11.05;;;13.70;47.70;;;;;;5072600;28;20097;-77
2023/09/09 11:41:41;;;;;;;14.90;7.53;;;13.70;49.60;;;;;;5072884;28;20436;-77
2023/09/09 11:44:09;;;;;;;16.58;11.82;;;13.50;46.70;;;;;;5072913;28;20029;-78
2023/09/09 11:46:41;;;;;;;7.13;4.07;;;13.50;47.10;;;;;;5071377;28;20036;-78
2023/09/09 11:49:12;;;;;;;4.80;2.20;;;13.40;46.70;;;;;;5072520;28;20020;-77
2023/09/09 11:51:40;;;;;;;6.70;4.15;;;13.20;46.00;;;;;;5072758;28;20549;-78
2023/09/09 11:54:09;;;;;;;3.47;1.70;;;13.30;48.50;;;;;;5072697;28;20021;-78
2023/09/09 11:56:37;;;;;;;4.22;1.80;;;13.20;45.80;;;;;;5073356;28;20024;-78
2023/09/09 11:59:13;;;;;;;7.90;2.63;;;13.20;48.10;;;;;;5057595;28;20043;-80
2023/09/09 12:01:42;;;;;;;4.95;2.60;;;13.20;48.90;;;;;;5056396;28;20032;-79
2023/09/09 12:04:10;;;;;;;6.45;2.75;;;13.30;50.10;;;;;;5056757;28;20104;-76
2023/09/09 12:06:41;;;;;;;4.53;2.13;;;13.30;50.00;;;;;;5055441;28;20028;-77
2023/09/09 12:09:09;;;;;;;6.88;1.92;;;13.40;50.60;;;;;;5059438;28;20032;-76
2023/09/09 12:11:39;;;;;;;6.18;2.40;;;13.30;49.90;;;;;;5075219;28;20025;-78
2023/09/09 12:14:06;;;;;;;4.30;2.30;;;13.30;48.40;;;;;;5076448;28;20020;-77
2023/09/09 12:16:35;;;;;;;6.47;2.83;;;13.20;50.10;;;;;;5076540;28;20032;-76
2023/09/09 12:19:02;;;;;;;6.35;2.95;;;13.30;49.60;;;;;;5074863;28;20112;-77
2023/09/09 12:21:31;;;;;;;3.97;2.10;;;13.40;51.70;;;;;;5074783;28;20025;-76
2023/09/09 12:24:00;;;;;;;5.82;2.20;;;13.30;50.60;;;;;;5076253;28;20375;-78
2023/09/09 12:26:28;;;;;;;5.82;2.13;;;13.20;50.90;;;;;;5076382;28;20022;-77
2023/09/09 12:29:12;;;;;;;2.53;1.73;;;13.20;51.40;;;;;;5076119;28;20106;-77
2023/09/09 12:31:56;;;;;;;4.88;2.00;;;13.30;51.10;;;;;;5076029;28;20029;-76
2023/09/09 12:34:25;;;;;;;4.95;2.13;;;13.20;52.10;;;;;;5073938;28;20028;-78
2023/09/09 12:37:01;;;;;;;4.78;2.08;;;13.20;52.10;;;;;;5075738;28;20054;-77
2023/09/09 12:39:28;;;;;;;;;;;13.20;52.70;;;;;;5075176;28;20033;-76
2023/09/09 12:42:02;;;;;;;4.57;1.90;;;13.10;51.60;;;;;;5074687;28;20006;-77
2023/09/09 12:44:34;;;;;;;4.47;1.98;;;13.20;53.70;;;;;;5075292;28;20032;-78
2023/09/09 12:47:05;;;;;;;7.20;2.13;;;13.30;54.50;;;;;;5073080;28;20051;-78
2023/09/09 12:49:33;;;;;;;8.02;2.28;;;13.30;53.00;;;;;;5075492;28;20115;-78
2023/09/09 12:52:00;;;;;;;3.95;2.10;;;13.30;51.60;;;;;;5075857;28;20168;-78
2023/09/09 12:54:27;;;;;;;5.57;2.17;;;13.30;52.10;;;;;;5075731;28;20111;-78
2023/09/09 12:56:55;;;;;;;4.80;1.95;;;13.20;51.60;;;;;;5069168;28;20392;-78